createdAt,value
2022-10-09T00:03:01.558Z,101281.25
2022-10-09T00:08:04.240Z,101291.06
2022-10-09T00:13:08.275Z,101301.41
2022-10-09T00:18:11.934Z,101296.25
2022-10-09T00:23:17.249Z,101295.34
2022-10-09T00:28:21.371Z,101297.88
2022-10-09T00:33:25.334Z,101304.13
2022-10-09T00:38:27.968Z,101299.34
2022-10-09T00:43:46.402Z,101295.34
2022-10-09T00:48:49.679Z,101299.03
2022-10-09T00:53:52.404Z,101298.88
2022-10-09T00:58:56.951Z,101301.19
2022-10-09T01:03:59.792Z,101305.84
2022-10-09T01:09:03.564Z,101299.28
2022-10-09T01:14:11.254Z,101301.53
2022-10-09T01:19:24.849Z,101299.72
2022-10-09T01:24:29.771Z,101298.91
2022-10-09T01:29:35.912Z,101309.00
2022-10-09T01:34:38.559Z,101300.28
2022-10-09T01:39:41.274Z,101304.34
2022-10-09T01:44:45.409Z,101311.63
2022-10-09T01:49:52.961Z,101323.88
2022-10-09T01:55:03.225Z,101322.25
2022-10-09T02:00:09.218Z,101322.44
2022-10-09T02:05:21.423Z,101320.03
2022-10-09T02:10:24.107Z,101322.09
2022-10-09T02:15:29.231Z,101318.75
2022-10-09T02:20:33.501Z,101323.53
2022-10-09T02:25:36.300Z,101330.06
2022-10-09T02:30:45.192Z,101332.69
2022-10-09T02:35:48.541Z,101331.31
2022-10-09T02:40:51.223Z,101333.22
2022-10-09T02:45:55.221Z,101345.16
2022-10-09T02:50:57.847Z,101348.00
2022-10-09T02:56:00.607Z,101349.19
2022-10-09T03:01:04.809Z,101346.00
2022-10-09T03:06:09.446Z,101351.47
2022-10-09T03:11:12.495Z,101353.50
2022-10-09T03:16:17.213Z,101362.91
2022-10-09T03:21:20.770Z,101348.78
2022-10-09T03:26:24.421Z,101351.41
2022-10-09T03:36:51.435Z,101357.13
2022-10-09T03:41:54.273Z,101378.81
2022-10-09T03:46:58.386Z,101383.41
2022-10-09T03:52:01.111Z,101381.88
2022-10-09T03:57:03.772Z,101378.22
2022-10-09T04:02:08.095Z,101363.44
2022-10-09T04:07:10.798Z,101374.09
2022-10-09T04:12:13.445Z,101376.09
2022-10-09T04:17:17.452Z,101380.41
2022-10-09T04:22:20.233Z,101379.66
2022-10-09T04:27:22.965Z,101382.53
2022-10-09T04:32:26.984Z,101388.66
2022-10-09T04:37:29.731Z,101396.03
2022-10-09T04:42:32.428Z,101394.38
2022-10-09T04:47:36.617Z,101395.25
2022-10-09T04:52:39.345Z,101396.13
2022-10-09T04:57:42.028Z,101398.91
2022-10-09T05:02:46.248Z,101399.94
2022-10-09T05:07:49.230Z,101396.50
2022-10-09T05:12:51.944Z,101395.75
2022-10-09T05:17:55.986Z,101398.44
2022-10-09T05:22:58.925Z,101394.09
2022-10-09T05:28:02.367Z,101403.00
2022-10-09T05:33:06.495Z,101404.22
2022-10-09T05:38:09.171Z,101404.13
2022-10-09T05:43:11.888Z,101405.06
2022-10-09T05:48:16.264Z,101411.25
2022-10-09T05:53:18.954Z,101409.94
2022-10-09T05:58:21.868Z,101409.16
2022-10-09T06:03:25.917Z,101417.31
2022-10-09T06:08:28.796Z,101415.59
2022-10-09T06:13:31.587Z,101420.84
2022-10-09T06:18:35.896Z,101429.00
2022-10-09T06:23:38.824Z,101435.13
2022-10-09T06:28:41.728Z,101434.53
2022-10-09T06:33:46.302Z,101430.63
2022-10-09T06:38:49.079Z,101440.41
2022-10-09T06:43:53.990Z,101443.19
2022-10-09T06:48:59.452Z,101458.22
2022-10-09T06:54:04.527Z,101460.81
2022-10-09T06:59:07.673Z,101458.22
2022-10-09T07:04:12.877Z,101471.84
2022-10-09T07:09:16.044Z,101470.09
2022-10-09T07:14:18.691Z,101472.03
2022-10-09T07:19:22.714Z,101478.06
2022-10-09T07:24:25.643Z,101475.38
2022-10-09T07:29:28.293Z,101478.81
2022-10-09T07:34:32.353Z,101487.47
2022-10-09T07:39:36.325Z,101486.38
2022-10-09T07:44:39.014Z,101486.63
2022-10-09T07:49:43.117Z,101499.03
2022-10-09T07:54:45.914Z,101507.44
2022-10-09T07:59:48.610Z,101506.09
2022-10-09T08:04:52.589Z,101501.47
2022-10-09T08:09:55.320Z,101504.53
2022-10-09T08:14:58.012Z,101488.84
2022-10-09T08:20:02.078Z,101484.81
2022-10-09T08:25:05.552Z,101494.16
2022-10-09T08:30:09.664Z,101492.03
2022-10-09T08:35:14.195Z,101494.38
2022-10-09T08:40:17.119Z,101494.00
2022-10-09T08:45:20.075Z,101494.63
2022-10-09T08:50:25.940Z,101497.97
2022-10-09T08:55:29.731Z,101498.75
2022-10-09T09:00:36.178Z,101494.00
2022-10-09T09:05:44.759Z,101505.50
2022-10-09T09:10:50.890Z,101490.19
2022-10-09T09:15:55.322Z,101488.22
2022-10-09T09:21:00.516Z,101494.25
2022-10-09T09:26:03.280Z,101494.06
2022-10-09T09:31:09.156Z,101488.66
2022-10-09T09:36:15.178Z,101491.22
2022-10-09T09:41:18.122Z,101478.50
2022-10-09T09:46:22.298Z,101478.41
2022-10-09T09:51:29.601Z,101478.16
2022-10-09T09:56:59.900Z,101470.00
2022-10-09T10:02:01.961Z,101466.28
2022-10-09T10:07:06.685Z,101460.59
2022-10-09T10:12:13.577Z,101454.00
2022-10-09T10:17:19.061Z,101445.41
2022-10-09T10:22:25.211Z,101445.94
2022-10-09T10:27:30.142Z,101436.75
2022-10-09T10:32:34.407Z,101424.97
2022-10-09T10:37:41.427Z,101428.25
2022-10-09T10:42:47.311Z,101419.81
2022-10-09T10:47:51.089Z,101419.44
2022-10-09T10:53:02.985Z,101403.03
2022-10-09T10:58:13.576Z,101402.03
2022-10-09T11:03:23.641Z,101396.34
2022-10-09T11:08:42.642Z,101382.56
2022-10-09T11:13:50.024Z,101377.69
2022-10-09T11:19:00.847Z,101367.69
2022-10-09T11:24:37.168Z,101358.56
2022-10-09T11:29:42.348Z,101352.25
2022-10-09T11:34:48.125Z,101342.25
2022-10-09T11:39:52.254Z,101332.94
2022-10-09T11:45:01.842Z,101320.16
2022-10-09T11:50:14.450Z,101317.94
2022-10-09T11:55:20.435Z,101314.75
2022-10-09T12:00:31.071Z,101299.38
2022-10-09T12:05:40.857Z,101287.38
2022-10-09T12:10:47.609Z,101278.97
2022-10-09T12:15:54.721Z,101274.25
2022-10-09T12:20:57.893Z,101265.88
2022-10-09T12:26:02.019Z,101266.41
2022-10-09T12:31:06.421Z,101257.09
2022-10-09T12:36:13.273Z,101246.09
2022-10-09T12:41:21.724Z,101244.09
2022-10-09T12:46:29.242Z,101235.69
2022-10-09T12:51:32.939Z,101230.13
2022-10-09T12:56:38.452Z,101219.69
2022-10-09T13:01:41.391Z,101218.41
2022-10-09T13:06:44.958Z,101206.66
2022-10-09T13:11:52.828Z,101190.75
2022-10-09T13:16:55.654Z,101189.63
2022-10-09T13:22:18.296Z,101186.06
2022-10-09T13:27:22.552Z,101184.34
2022-10-09T13:32:25.353Z,101177.78
2022-10-09T13:37:28.157Z,101175.34
2022-10-09T13:42:33.976Z,101160.13
2022-10-09T13:47:36.812Z,101160.72
2022-10-09T13:57:48.929Z,101140.66
2022-10-09T14:02:52.072Z,101140.97
2022-10-09T14:07:55.379Z,101132.78
2022-10-09T14:12:59.621Z,101132.81
2022-10-09T14:18:02.274Z,101133.47
2022-10-09T14:23:05.032Z,101126.09
2022-10-09T14:28:09.060Z,101115.88
2022-10-09T14:33:12.538Z,101109.00
2022-10-09T14:38:15.503Z,101100.94
2022-10-09T14:43:20.043Z,101102.88
2022-10-09T14:48:22.743Z,101088.88
2022-10-09T14:53:27.012Z,101086.91
2022-10-09T14:58:32.098Z,101074.41
2022-10-09T15:03:35.680Z,101066.72
2022-10-09T15:08:39.904Z,101071.94
2022-10-09T15:13:45.057Z,101064.25
2022-10-09T15:18:49.012Z,101056.03
2022-10-09T15:23:51.737Z,101059.34
2022-10-09T15:28:55.773Z,101058.13
2022-10-09T15:33:58.664Z,101054.53
2022-10-09T15:39:03.156Z,101050.22
2022-10-09T15:44:08.923Z,101048.38
2022-10-09T15:49:11.683Z,101042.00
2022-10-09T15:54:15.012Z,101039.66
2022-10-09T15:59:19.143Z,101039.88
2022-10-09T16:04:21.926Z,101034.09
2022-10-09T16:09:25.093Z,101028.94
2022-10-09T16:14:30.359Z,101021.09
2022-10-09T16:19:33.086Z,101022.94
2022-10-09T16:24:35.872Z,101015.06
2022-10-09T16:29:39.994Z,101012.38
2022-10-09T16:34:42.707Z,101007.34
2022-10-09T16:39:45.793Z,101018.97
2022-10-09T16:44:51.485Z,101022.00
2022-10-09T16:49:54.173Z,101017.59
2022-10-09T16:55:00.168Z,101016.63
2022-10-09T17:00:05.605Z,101009.19
2022-10-09T17:05:09.127Z,101009.41
2022-10-09T17:10:11.801Z,101007.34
2022-10-09T17:15:15.938Z,101006.50
2022-10-09T17:20:18.747Z,101005.41
2022-10-09T17:25:21.507Z,101005.41
2022-10-09T17:30:26.644Z,100996.59
2022-10-09T17:35:29.272Z,101000.03
2022-10-09T17:40:31.977Z,101001.84
2022-10-09T17:45:39.570Z,100999.28
2022-10-09T17:50:42.229Z,101002.94
2022-10-09T17:55:44.939Z,101000.88
2022-10-09T18:00:49.106Z,101002.59
2022-10-09T18:05:52.189Z,100994.53
2022-10-09T18:10:58.452Z,100991.72
2022-10-09T18:16:05.714Z,101002.28
2022-10-09T18:21:10.294Z,100993.53
2022-10-09T18:26:14.669Z,100988.94
2022-10-09T18:31:20.748Z,100985.28
2022-10-09T18:36:24.792Z,100984.41
2022-10-09T18:41:27.486Z,100979.25
2022-10-09T18:46:32.802Z,100979.47
2022-10-09T18:51:35.598Z,100977.66
2022-10-09T18:56:38.343Z,100985.09
2022-10-09T19:01:42.354Z,100975.28
2022-10-09T19:06:45.350Z,100986.94
2022-10-09T19:11:48.024Z,100969.16
2022-10-09T19:16:52.065Z,100969.41
2022-10-09T19:21:55.003Z,100960.59
2022-10-09T19:26:58.346Z,100961.22
2022-10-09T19:32:02.388Z,100958.63
2022-10-09T19:42:13.129Z,100945.91
2022-10-09T19:47:18.872Z,100942.91
2022-10-09T19:52:23.016Z,100930.19
2022-10-09T19:57:26.543Z,100929.94
2022-10-09T20:02:30.836Z,100925.22
2022-10-09T20:07:33.606Z,100914.53
2022-10-09T20:12:36.288Z,100911.75
2022-10-09T20:17:40.289Z,100895.63
2022-10-09T20:22:43.367Z,100904.28
2022-10-09T20:27:46.057Z,100904.75
2022-10-09T20:32:51.470Z,100899.78
2022-10-09T20:37:57.044Z,100905.75
2022-10-09T20:42:59.725Z,100892.44
2022-10-09T20:48:03.742Z,100887.78
2022-10-09T20:53:06.639Z,100886.06
2022-10-09T20:58:09.293Z,100901.16
2022-10-09T21:03:13.325Z,100893.94
2022-10-09T21:08:15.994Z,100893.06
2022-10-09T21:13:18.701Z,100894.78
2022-10-09T21:18:23.294Z,100883.78
2022-10-09T21:23:26.206Z,100880.22
2022-10-09T21:28:29.101Z,100864.31
2022-10-09T21:33:33.260Z,100864.06
2022-10-09T21:38:35.923Z,100865.06
2022-10-09T21:43:38.588Z,100865.91
2022-10-09T21:48:42.683Z,100863.09
2022-10-09T21:53:45.488Z,100853.31
2022-10-09T21:58:49.168Z,100853.19
2022-10-09T22:03:53.781Z,100844.38
2022-10-09T22:08:56.457Z,100839.13
2022-10-09T22:13:59.148Z,100835.06
2022-10-09T22:19:03.196Z,100824.03
2022-10-09T22:24:06.142Z,100823.03
2022-10-09T22:29:08.790Z,100817.63
2022-10-09T22:34:12.804Z,100811.31
2022-10-09T22:39:15.507Z,100807.59
2022-10-09T22:44:18.207Z,100801.53
2022-10-09T22:49:22.204Z,100792.56
2022-10-09T22:54:25.070Z,100798.19
2022-10-09T22:59:27.942Z,100797.66
2022-10-09T23:04:32.263Z,100786.78
2022-10-09T23:09:34.939Z,100792.81
2022-10-09T23:14:37.605Z,100780.09
2022-10-09T23:19:41.741Z,100775.75
2022-10-09T23:24:44.662Z,100773.47
2022-10-09T23:29:47.350Z,100767.13
2022-10-09T23:34:51.411Z,100756.34
2022-10-09T23:39:54.109Z,100759.38
2022-10-09T23:44:57.009Z,100749.97
2022-10-09T23:50:01.258Z,100752.84
2022-10-09T23:55:04.040Z,100744.31
